Startpagina
METAR-TAF:

METAR-TAF

Vliegvelden :

Bonriki International Airport

Tarawa, Kiribati

breedte: 01-21N, lengte: 172-55E, hoogte: 2 m

Actueel weer

Dit bericht is 50 minuten geleden gemaakt, om 22:00 UTC
Wind 11 kt uit het oosten
Temperatuur 31°C
Vochtigheid 66%
Druk 1008 hPa
Zicht 10 km of meer
Weinig wolken op 2000 ft
Gebroken wolken op 30000 ft

METAR: NGTA 162200Z 10011KT 9999 FEW020 BKN300 31/24 Q1008

Tijdstip: 12:50 (22:50 UTC)

Verwachting

Dit bericht is 5 uur en het 47 minuten geleden gemaakt, om 17:03 UTC
Verwachting geldig van 16 om 18 UTC tot 17 om 18 UTC
Wind 8 kt uit het oostzuidoosten
Zicht 10 km of meer
Weinig wolken op 2000 ft
Gebroken wolken op 10000 ft

TAF: NGTA 161703Z 1618/1718 11008KT 9999 FEW020 BKN100

Waarnemingen en weersverwachtingen van meer dan 4000 vliegvelden (METAR en TAF).

De beschikbare stations zijn de gele en rode punten op de kaart.

Ga met uw muis naar het station om de naam te zien.

Klik dan om waarnemingen en weersverwachtingen te zien.

kaart wijzigen: klik op de groene knoppen met een zwart kruis om in te zoomen, op de groene knop met een streepje om uit te zoomen of op de groene pijlen voor aangrenzende kaarten.


METAR-TAF: